Mid Delta Regional Airport Greenville US
ICAO: KGLH
IATA: GLH
Category: Medium
Scheduled Services: Yes

Elevation: 131 ft
TransAlt. 18000 ft.

Airport Communications:
ASOS:125.525
MEMPHIS CNTR:135.875
CTAF:119
GND:121.8
GREENVILLE TWR:119
UNICOM:122.95

KGLH Zoom In..

Runways:

(A) RW 18L length 8001 ft width 150 ft
ILS 109.10 / hdg 177

(B) RW 18R length 7019 ft width 150 ft
---- / hdg 177

(C) RW 36L length 7019 ft width 150 ft
---- / hdg 357

(D) RW 36R length 8001 ft width 150 ft
---- / hdg 357

Location; KGLH
Day. 10 / Time. 07.53 Zulu
* Altimeter: 29.98
* Temperature: 16° c. 60.8°f.
* Wind from: 010° Speed 18 kn with Gusts up to 28 kn.
Dewpoint: 03° c.
Visibility: 10 Statute Miles.
Clouds: Clear (automated report).

KGLH 100753Z AUTO 01018G28KT 10SM CLR 16/03 A2998 RMK AO2 PK WND 01028/0753 SLP157 T01560028 $


Wind From 010°
Speed 18 kn.

 
 
jpsmedia worldairports.se 2020   terms of use